Midland, Ohio
Current Conditions -  °F | °C
As of 11:54 AM on Sunday 21 Dec 2014 (Local Time) from KILN Reporting Station
Haze Haze  
Wind Chill: 24°   Ceiling: 1400
Heat Index: 30°   Visibility: 6mi
Dew Point: 23°   Wind: 6mph
Humidity: 75%   Direction: 130°SE
Pressure: 30.27"   Gusts: NA
Location:  39.31°N, 83.91°W
Report Text: KILN 211654Z AUTO 13005KT 6SM HZ OVC014 M01/M05 A3027 RMK AO2 SLP282 T10111050
Loading
Personal Weather Stations






























Interactive Weather Map New forecast layout! Learn more

10-Day Weather Forecast

Advertisements
Track Severe Weather on mobile